createdAt,value
2022-08-08T00:00:52.965Z,16.50
2022-08-08T00:02:30.916Z,16.50
2022-08-08T00:05:09.815Z,16.80
2022-08-08T00:07:52.764Z,16.90
2022-08-08T00:10:28.221Z,16.90
2022-08-08T00:13:10.535Z,16.90
2022-08-08T00:15:57.279Z,16.70
2022-08-08T00:18:36.098Z,16.80
2022-08-08T00:21:07.638Z,16.70
2022-08-08T00:23:47.477Z,16.70
2022-08-08T00:26:21.735Z,16.80
2022-08-08T00:29:02.400Z,16.80
2022-08-08T00:32:28.292Z,16.70
2022-08-08T00:35:04.255Z,16.70
2022-08-08T00:37:45.379Z,16.60
2022-08-08T00:41:07.896Z,16.40
2022-08-08T00:44:10.858Z,16.50
2022-08-08T00:47:19.601Z,16.50
2022-08-08T00:50:26.838Z,16.40
2022-08-08T00:53:06.786Z,16.30
2022-08-08T00:56:12.381Z,16.30
2022-08-08T00:59:43.765Z,16.00
2022-08-08T01:03:59.070Z,15.80
2022-08-08T01:05:59.609Z,15.90
2022-08-08T01:09:01.778Z,16.10
2022-08-08T01:12:18.302Z,16.20
2022-08-08T01:15:43.797Z,16.30
2022-08-08T01:18:53.500Z,16.30
2022-08-08T01:22:13.125Z,16.20
2022-08-08T01:25:40.268Z,16.20
2022-08-08T01:28:36.787Z,16.20
2022-08-08T01:32:13.074Z,16.10
2022-08-08T01:35:15.783Z,16.10
2022-08-08T01:38:09.306Z,16.10
2022-08-08T01:40:47.187Z,16.00
2022-08-08T01:43:34.750Z,15.80
2022-08-08T01:46:27.188Z,15.90
2022-08-08T01:49:06.209Z,15.90
2022-08-08T01:52:57.419Z,15.60
2022-08-08T01:55:27.052Z,15.60
2022-08-08T01:58:12.111Z,15.20
2022-08-08T02:00:58.219Z,15.30
2022-08-08T02:03:55.149Z,15.50
2022-08-08T02:06:40.912Z,15.60
2022-08-08T02:10:02.822Z,15.60
2022-08-08T02:12:25.178Z,15.70
2022-08-08T02:15:01.176Z,15.60
2022-08-08T02:17:43.323Z,15.30
2022-08-08T02:21:01.485Z,15.30
2022-08-08T02:23:16.293Z,15.10
2022-08-08T02:25:53.666Z,15.30
2022-08-08T02:28:43.381Z,15.40
2022-08-08T02:31:59.506Z,15.30
2022-08-08T02:35:08.941Z,15.30
2022-08-08T02:37:51.297Z,15.30
2022-08-08T02:40:34.815Z,15.20
2022-08-08T02:44:42.639Z,15.30
2022-08-08T02:46:54.286Z,15.30
2022-08-08T02:49:50.895Z,15.30
2022-08-08T02:53:01.340Z,15.30
2022-08-08T02:56:14.018Z,15.30
2022-08-08T03:00:01.693Z,15.20
2022-08-08T03:03:12.403Z,15.20
2022-08-08T03:06:34.336Z,15.20
2022-08-08T03:09:42.824Z,15.20
2022-08-08T03:13:01.219Z,15.20
2022-08-08T03:16:19.872Z,15.20
2022-08-08T03:19:50.434Z,14.00
2022-08-08T03:22:38.891Z,13.70
2022-08-08T03:25:18.079Z,14.10
2022-08-08T03:27:56.439Z,13.80
2022-08-08T03:30:25.936Z,14.10
2022-08-08T03:33:56.944Z,14.30
2022-08-08T03:36:01.580Z,14.30
2022-08-08T03:38:57.203Z,14.60
2022-08-08T03:42:04.062Z,14.70
2022-08-08T03:44:09.354Z,14.70
2022-08-08T03:46:48.221Z,14.70
2022-08-08T03:49:57.582Z,14.70
2022-08-08T03:52:13.206Z,14.70
2022-08-08T03:55:02.323Z,14.70
2022-08-08T03:58:32.371Z,14.80
2022-08-08T04:00:26.233Z,14.80
2022-08-08T04:03:00.530Z,14.90
2022-08-08T04:05:31.034Z,14.80
2022-08-08T04:08:01.330Z,14.80
2022-08-08T04:10:32.360Z,14.80
2022-08-08T04:13:17.637Z,14.50
2022-08-08T04:16:03.241Z,14.30
2022-08-08T04:18:41.973Z,13.80
2022-08-08T04:21:13.373Z,13.50
2022-08-08T04:24:12.251Z,13.30
2022-08-08T04:26:35.488Z,13.20
2022-08-08T04:29:19.391Z,13.10
2022-08-08T04:31:58.611Z,13.10
2022-08-08T04:34:32.068Z,13.10
2022-08-08T04:37:13.288Z,13.10
2022-08-08T04:40:03.573Z,13.00
2022-08-08T04:42:33.776Z,13.00
2022-08-08T04:45:04.282Z,12.90
2022-08-08T04:47:43.526Z,12.90
2022-08-08T04:50:25.188Z,13.00
2022-08-08T04:52:58.681Z,13.30
2022-08-08T04:55:47.419Z,13.60
2022-08-08T04:58:18.121Z,14.00
2022-08-08T05:00:48.539Z,14.40
2022-08-08T05:04:09.918Z,14.90
2022-08-08T05:06:12.697Z,14.90
2022-08-08T05:08:51.697Z,15.20
2022-08-08T05:11:23.794Z,15.20
2022-08-08T05:13:58.416Z,15.40
2022-08-08T05:16:52.824Z,15.80
2022-08-08T05:20:10.354Z,16.20
2022-08-08T05:22:10.469Z,17.00
2022-08-08T05:24:39.119Z,17.40
2022-08-08T05:27:08.836Z,17.70
2022-08-08T05:29:37.378Z,17.80
2022-08-08T05:32:09.394Z,18.20
2022-08-08T05:34:47.359Z,18.40
2022-08-08T05:37:19.993Z,18.90
2022-08-08T05:39:52.756Z,19.00
2022-08-08T05:42:25.779Z,19.40
2022-08-08T05:44:55.391Z,19.20
2022-08-08T05:47:52.937Z,19.20
2022-08-08T05:50:19.585Z,19.00
2022-08-08T05:52:50.539Z,19.10
2022-08-08T05:55:18.841Z,19.70
2022-08-08T05:58:03.890Z,19.60
2022-08-08T06:00:34.667Z,19.80
2022-08-08T06:03:24.831Z,19.80
2022-08-08T06:05:56.784Z,19.90
2022-08-08T06:08:34.540Z,20.60
2022-08-08T06:11:04.481Z,20.80
2022-08-08T06:13:36.292Z,21.00
2022-08-08T06:16:16.558Z,21.00
2022-08-08T06:18:50.396Z,20.90
2022-08-08T06:21:28.638Z,19.80
2022-08-08T06:24:05.097Z,21.00
2022-08-08T06:26:50.467Z,21.20
2022-08-08T06:30:00.227Z,21.60
2022-08-08T06:32:24.566Z,21.60
2022-08-08T06:36:00.568Z,21.50
2022-08-08T06:37:51.073Z,20.90
2022-08-08T06:40:27.384Z,20.90
2022-08-08T06:42:57.676Z,22.30
2022-08-08T06:45:25.931Z,22.40
2022-08-08T06:50:39.864Z,22.90
2022-08-08T06:53:17.125Z,22.60
2022-08-08T06:56:02.193Z,23.00
2022-08-08T06:58:33.679Z,23.30
2022-08-08T07:01:11.796Z,23.50
2022-08-08T07:04:37.930Z,23.20
2022-08-08T07:06:50.598Z,24.10
2022-08-08T07:09:22.090Z,24.40
2022-08-08T07:11:58.962Z,23.80
2022-08-08T07:14:37.659Z,23.40
2022-08-08T07:17:09.098Z,23.70
2022-08-08T07:19:48.740Z,23.40
2022-08-08T07:22:27.082Z,24.00
2022-08-08T07:25:02.029Z,24.30
2022-08-08T07:27:47.224Z,24.80
2022-08-08T07:30:26.472Z,24.90
2022-08-08T07:32:59.466Z,25.10
2022-08-08T07:35:31.160Z,24.20
2022-08-08T07:38:20.298Z,24.50
2022-08-08T07:40:58.827Z,25.40
2022-08-08T07:43:35.151Z,25.60
2022-08-08T07:46:18.333Z,25.20
2022-08-08T07:48:52.706Z,24.60
2022-08-08T07:51:24.292Z,24.80
2022-08-08T07:54:26.524Z,25.10
2022-08-08T07:57:04.152Z,25.00
2022-08-08T07:59:44.860Z,25.20
2022-08-08T08:02:33.609Z,25.70
2022-08-08T08:05:14.822Z,25.90
2022-08-08T08:07:46.021Z,26.70
2022-08-08T08:10:18.671Z,26.50
2022-08-08T08:13:25.931Z,26.20
2022-08-08T08:16:11.440Z,26.60
2022-08-08T08:18:52.093Z,26.70
2022-08-08T08:21:44.325Z,26.90
2022-08-08T08:24:18.600Z,27.70
2022-08-08T08:26:54.666Z,27.20
2022-08-08T08:29:24.119Z,27.80
2022-08-08T08:31:58.236Z,27.00
2022-08-08T08:34:32.335Z,27.80
2022-08-08T08:37:03.306Z,28.10
2022-08-08T08:39:39.168Z,28.40
2022-08-08T08:42:29.018Z,27.90
2022-08-08T08:45:01.495Z,28.20
2022-08-08T08:47:46.333Z,29.20
2022-08-08T08:50:17.225Z,28.80
2022-08-08T08:53:04.801Z,28.00
2022-08-08T08:55:52.993Z,29.00
2022-08-08T08:58:33.258Z,28.70
2022-08-08T09:01:08.839Z,28.00
2022-08-08T09:03:47.341Z,28.10
2022-08-08T09:06:28.319Z,28.30
2022-08-08T09:09:07.376Z,29.00
2022-08-08T09:12:01.625Z,30.10
2022-08-08T09:14:34.027Z,29.90
2022-08-08T09:17:09.810Z,28.80
2022-08-08T09:21:58.544Z,27.60
2022-08-08T09:22:28.876Z,27.30
2022-08-08T09:24:58.441Z,28.00
2022-08-08T09:27:56.893Z,28.50
2022-08-08T09:30:21.940Z,28.60
2022-08-08T09:33:12.819Z,28.20
2022-08-08T09:35:48.934Z,27.80
2022-08-08T09:38:32.731Z,28.20
2022-08-08T09:41:06.381Z,29.00
2022-08-08T09:44:06.491Z,28.10
2022-08-08T09:46:45.530Z,26.60
2022-08-08T09:49:42.713Z,26.60
2022-08-08T09:52:54.116Z,26.70
2022-08-08T09:55:09.097Z,27.90
2022-08-08T09:57:47.485Z,30.00
2022-08-08T10:00:43.494Z,28.80
2022-08-08T10:03:19.791Z,28.10
2022-08-08T10:05:48.834Z,29.40
2022-08-08T10:08:17.887Z,29.80
2022-08-08T10:10:50.910Z,29.70
2022-08-08T10:13:26.179Z,28.10
2022-08-08T10:16:05.375Z,28.90
2022-08-08T10:18:36.754Z,30.10
2022-08-08T10:21:22.599Z,30.60
2022-08-08T10:23:58.015Z,30.70
2022-08-08T10:26:56.914Z,31.10
2022-08-08T10:29:25.094Z,31.40
2022-08-08T10:32:16.786Z,31.70
2022-08-08T10:34:58.842Z,31.70
2022-08-08T10:37:34.739Z,31.50
2022-08-08T10:40:16.368Z,32.00
2022-08-08T10:42:46.697Z,32.30
2022-08-08T10:45:16.845Z,32.90
2022-08-08T10:47:55.465Z,32.80
2022-08-08T10:50:34.186Z,31.80
2022-08-08T10:53:07.587Z,32.50
2022-08-08T10:55:46.404Z,31.40
2022-08-08T10:58:15.932Z,31.30
2022-08-08T11:00:52.585Z,31.80
2022-08-08T11:04:01.333Z,32.30
2022-08-08T11:06:36.399Z,32.00
2022-08-08T11:09:20.210Z,32.00
2022-08-08T11:12:05.450Z,31.40
2022-08-08T11:14:54.025Z,31.10
2022-08-08T11:17:58.239Z,31.60
2022-08-08T11:20:18.270Z,31.20
2022-08-08T11:22:53.554Z,30.80
2022-08-08T11:25:56.896Z,30.40
2022-08-08T11:28:18.644Z,27.50
2022-08-08T11:30:50.335Z,27.40
2022-08-08T11:33:53.528Z,26.30
2022-08-08T11:36:16.059Z,26.30
2022-08-08T11:38:55.445Z,26.10
2022-08-08T11:41:27.994Z,27.70
2022-08-08T11:44:01.273Z,26.70
2022-08-08T11:46:32.755Z,29.20
2022-08-08T11:49:04.279Z,27.00
2022-08-08T11:51:40.161Z,27.40
2022-08-08T11:54:31.122Z,27.90
2022-08-08T11:57:17.056Z,28.30
2022-08-08T12:00:01.739Z,28.60
2022-08-08T12:02:34.788Z,29.30
2022-08-08T12:05:07.758Z,30.00
2022-08-08T12:07:51.190Z,30.40
2022-08-08T12:10:22.990Z,30.80
2022-08-08T12:13:00.688Z,30.20
2022-08-08T12:15:30.756Z,30.30
2022-08-08T12:18:21.629Z,30.50
2022-08-08T12:20:54.433Z,30.40
2022-08-08T12:23:42.792Z,31.10
2022-08-08T12:26:28.369Z,31.40
2022-08-08T12:29:21.181Z,29.30
2022-08-08T12:32:02.708Z,29.00
2022-08-08T12:34:43.676Z,28.80
2022-08-08T12:37:19.962Z,28.70
2022-08-08T12:40:00.923Z,28.60
2022-08-08T12:42:33.551Z,30.10
2022-08-08T12:45:20.241Z,29.80
2022-08-08T12:48:09.782Z,29.10
2022-08-08T12:50:46.859Z,29.20
2022-08-08T12:53:23.836Z,29.00
2022-08-08T12:56:18.700Z,29.10
2022-08-08T12:58:49.453Z,29.80
2022-08-08T13:01:24.711Z,31.20
2022-08-08T13:04:18.312Z,30.50
2022-08-08T13:06:55.685Z,30.90
2022-08-08T13:09:32.967Z,31.60
2022-08-08T13:12:17.973Z,31.80
2022-08-08T13:14:53.793Z,32.20
2022-08-08T13:18:08.046Z,29.20
2022-08-08T13:20:17.430Z,30.60
2022-08-08T13:22:47.463Z,30.00
2022-08-08T13:25:16.953Z,30.10
2022-08-08T13:27:45.421Z,30.60
2022-08-08T13:30:21.024Z,30.30
2022-08-08T13:32:57.160Z,30.80
2022-08-08T13:35:38.364Z,31.40
2022-08-08T13:38:12.974Z,31.60
2022-08-08T13:40:44.990Z,30.60
2022-08-08T13:43:13.719Z,30.80
2022-08-08T13:45:47.618Z,30.80
2022-08-08T13:48:25.299Z,30.30
2022-08-08T13:51:05.245Z,30.00
2022-08-08T13:54:00.732Z,29.00
2022-08-08T13:56:44.718Z,27.80
2022-08-08T13:59:33.998Z,26.90
2022-08-08T14:02:30.259Z,26.80
2022-08-08T14:05:05.022Z,27.60
2022-08-08T14:07:49.862Z,28.40
2022-08-08T14:10:33.361Z,27.30
2022-08-08T14:13:30.797Z,26.60
2022-08-08T14:16:03.601Z,27.90
2022-08-08T14:18:36.991Z,27.70
2022-08-08T14:21:22.303Z,28.50
2022-08-08T14:24:06.958Z,26.70
2022-08-08T14:33:59.192Z,26.40
2022-08-08T14:36:34.665Z,26.10
2022-08-08T14:39:11.707Z,25.90
2022-08-08T14:41:53.380Z,26.50
2022-08-08T14:44:35.380Z,27.30
2022-08-08T14:47:17.351Z,27.00
2022-08-08T14:50:06.005Z,27.20
2022-08-08T14:52:48.526Z,27.00
2022-08-08T14:55:22.514Z,27.50
2022-08-08T14:58:06.219Z,26.80
2022-08-08T15:00:40.009Z,27.10
2022-08-08T15:03:15.498Z,28.00
2022-08-08T15:05:54.687Z,29.00
2022-08-08T15:08:35.340Z,28.90
2022-08-08T15:11:10.490Z,27.60
2022-08-08T15:14:02.009Z,27.40
2022-08-08T15:16:34.331Z,28.90
2022-08-08T15:19:04.140Z,29.30
2022-08-08T15:21:37.950Z,28.80
2022-08-08T15:24:13.685Z,29.10
2022-08-08T15:26:52.395Z,28.90
2022-08-08T15:29:22.670Z,29.60
2022-08-08T15:32:03.115Z,28.60
2022-08-08T15:34:41.190Z,27.80
2022-08-08T15:37:13.027Z,27.00
2022-08-08T15:39:41.499Z,27.40
2022-08-08T15:42:17.930Z,27.10
2022-08-08T15:44:59.054Z,27.60
2022-08-08T15:47:27.285Z,28.10
2022-08-08T15:49:55.440Z,28.00
2022-08-08T15:52:25.770Z,28.10
2022-08-08T15:54:54.017Z,28.00
2022-08-08T15:57:23.536Z,28.70
2022-08-08T16:00:06.782Z,28.00
2022-08-08T16:02:50.212Z,28.20
2022-08-08T16:05:20.579Z,27.90
2022-08-08T16:07:53.997Z,28.10
2022-08-08T16:13:14.781Z,26.90
2022-08-08T16:13:30.662Z,26.70
2022-08-08T16:16:09.678Z,27.50
2022-08-08T16:18:56.661Z,27.20
2022-08-08T16:21:27.807Z,28.00
2022-08-08T16:24:00.659Z,27.80
2022-08-08T16:26:33.882Z,27.40
2022-08-08T16:29:07.804Z,27.40
2022-08-08T16:31:40.400Z,27.50
2022-08-08T16:34:09.020Z,27.00
2022-08-08T16:36:37.832Z,27.60
2022-08-08T16:39:09.921Z,27.90
2022-08-08T16:42:00.993Z,27.70
2022-08-08T16:44:33.940Z,27.50
2022-08-08T16:47:17.399Z,27.80
2022-08-08T16:49:47.715Z,27.60
2022-08-08T16:55:03.231Z,27.70
2022-08-08T16:55:42.527Z,27.60
2022-08-08T16:58:15.471Z,27.30
2022-08-08T17:00:48.757Z,26.80
2022-08-08T17:03:18.178Z,26.60
2022-08-08T17:05:56.439Z,26.90
2022-08-08T17:08:24.584Z,26.70
2022-08-08T17:10:58.702Z,26.80
2022-08-08T17:13:50.147Z,26.30
2022-08-08T17:16:28.492Z,26.20
2022-08-08T17:18:58.397Z,25.80
2022-08-08T17:21:41.425Z,25.80
2022-08-08T17:24:20.611Z,25.80
2022-08-08T17:26:58.029Z,25.80
2022-08-08T17:29:27.572Z,25.90
2022-08-08T17:31:57.496Z,25.80
2022-08-08T17:34:48.383Z,25.80
2022-08-08T17:37:14.639Z,25.70
2022-08-08T17:40:05.105Z,25.60
2022-08-08T17:42:32.213Z,25.40
2022-08-08T17:45:00.708Z,25.30
2022-08-08T17:47:40.576Z,25.30
2022-08-08T17:50:10.431Z,25.30
2022-08-08T17:52:43.092Z,25.20
2022-08-08T17:56:05.055Z,25.00
2022-08-08T17:58:02.657Z,25.00
2022-08-08T18:00:31.808Z,25.00
2022-08-08T18:03:07.512Z,24.90
2022-08-08T18:05:48.530Z,24.90
2022-08-08T18:08:37.613Z,24.70
2022-08-08T18:11:14.981Z,24.70
2022-08-08T18:13:46.479Z,24.60
2022-08-08T18:16:16.968Z,24.40
2022-08-08T18:18:52.884Z,24.20
2022-08-08T18:21:34.764Z,24.20
2022-08-08T18:24:19.721Z,24.30
2022-08-08T18:26:54.422Z,24.20
2022-08-08T18:29:30.194Z,24.10
2022-08-08T18:32:04.040Z,24.00
2022-08-08T18:34:36.045Z,24.00
2022-08-08T18:37:08.003Z,23.90
2022-08-08T18:39:37.842Z,23.80
2022-08-08T18:42:13.934Z,23.80
2022-08-08T18:44:55.743Z,23.80
2022-08-08T18:47:26.685Z,23.70
2022-08-08T18:49:58.958Z,23.70
2022-08-08T18:52:30.115Z,23.60
2022-08-08T18:55:00.183Z,23.50
2022-08-08T18:57:41.139Z,23.60
2022-08-08T19:00:15.614Z,23.50
2022-08-08T19:02:48.031Z,23.30
2022-08-08T19:05:23.358Z,23.10
2022-08-08T19:07:52.765Z,23.20
2022-08-08T19:10:20.954Z,23.10
2022-08-08T19:12:53.577Z,23.00
2022-08-08T19:15:23.799Z,23.00
2022-08-08T19:18:33.167Z,22.90
2022-08-08T19:20:46.637Z,22.90
2022-08-08T19:23:16.684Z,22.80
2022-08-08T19:26:20.444Z,22.80
2022-08-08T19:28:33.689Z,22.80
2022-08-08T19:31:09.109Z,22.60
2022-08-08T19:33:52.250Z,22.60
2022-08-08T19:36:28.364Z,22.50
2022-08-08T19:38:56.649Z,22.30
2022-08-08T19:41:29.342Z,21.90
2022-08-08T19:44:03.931Z,21.90
2022-08-08T19:46:42.660Z,22.10
2022-08-08T19:49:13.103Z,22.10
2022-08-08T19:51:43.144Z,22.00
2022-08-08T19:54:12.603Z,21.90
2022-08-08T19:56:48.477Z,22.00
2022-08-08T19:59:22.155Z,22.00
2022-08-08T20:02:02.966Z,21.90
2022-08-08T20:04:32.215Z,21.80
2022-08-08T20:07:03.538Z,21.70
2022-08-08T20:09:55.476Z,21.80
2022-08-08T20:12:32.066Z,22.00
2022-08-08T20:15:14.844Z,21.90
2022-08-08T20:17:48.367Z,21.80
2022-08-08T20:20:19.866Z,21.70
2022-08-08T20:22:54.217Z,21.90
2022-08-08T20:25:24.580Z,21.90
2022-08-08T20:27:54.954Z,21.70
2022-08-08T20:30:38.916Z,21.70
2022-08-08T20:35:56.751Z,21.50
2022-08-08T20:38:29.165Z,21.80
2022-08-08T20:41:00.659Z,21.60
2022-08-08T20:43:43.539Z,21.50
2022-08-08T20:46:16.221Z,21.40
2022-08-08T20:48:47.693Z,21.40
2022-08-08T20:51:15.957Z,21.20
2022-08-08T20:54:01.039Z,21.00
2022-08-08T20:56:35.680Z,21.00
2022-08-08T20:59:06.006Z,21.00
2022-08-08T21:01:44.375Z,20.80
2022-08-08T21:04:27.613Z,21.10
2022-08-08T21:06:56.758Z,21.10
2022-08-08T21:09:31.758Z,20.80
2022-08-08T21:12:13.307Z,21.00
2022-08-08T21:14:41.420Z,20.90
2022-08-08T21:17:17.645Z,21.00
2022-08-08T21:19:49.405Z,20.60
2022-08-08T21:22:28.899Z,20.40
2022-08-08T21:24:57.186Z,20.50
2022-08-08T21:28:06.334Z,21.00
2022-08-08T21:30:19.157Z,21.20
2022-08-08T21:32:51.789Z,21.30
2022-08-08T21:36:18.730Z,21.00
2022-08-08T21:38:16.509Z,21.00
2022-08-08T21:40:54.764Z,21.20
2022-08-08T21:43:25.472Z,21.40
2022-08-08T21:48:04.029Z,21.70
2022-08-08T21:48:50.912Z,21.60
2022-08-08T21:54:27.209Z,21.50
2022-08-08T21:54:35.965Z,21.50
2022-08-08T21:57:00.322Z,21.10
2022-08-08T22:00:03.310Z,21.50
2022-08-08T22:02:19.397Z,21.70
2022-08-08T22:04:53.320Z,21.80
2022-08-08T22:07:34.824Z,21.60
2022-08-08T22:10:28.217Z,21.10
2022-08-08T22:13:17.461Z,21.40
2022-08-08T22:15:58.356Z,21.40
2022-08-08T22:18:30.392Z,21.00
2022-08-08T22:21:01.635Z,20.90
2022-08-08T22:23:51.578Z,20.70
2022-08-08T22:26:28.626Z,20.50
2022-08-08T22:29:12.882Z,20.10
2022-08-08T22:32:02.100Z,19.90
2022-08-08T22:34:32.166Z,20.00
2022-08-08T22:37:00.337Z,19.70
2022-08-08T22:39:45.690Z,19.60
2022-08-08T22:42:26.968Z,20.00
2022-08-08T22:44:56.212Z,20.00
2022-08-08T22:47:34.239Z,20.20
2022-08-08T22:50:21.604Z,20.90
2022-08-08T22:54:15.715Z,20.90
2022-08-08T22:55:59.751Z,20.70
2022-08-08T22:58:32.839Z,20.90
2022-08-08T23:01:16.536Z,20.90
2022-08-08T23:03:53.129Z,21.00
2022-08-08T23:06:23.428Z,20.90
2022-08-08T23:08:54.750Z,21.00
2022-08-08T23:11:31.058Z,20.90
2022-08-08T23:14:16.244Z,21.00
2022-08-08T23:16:47.167Z,20.90
2022-08-08T23:19:22.714Z,20.80
2022-08-08T23:21:50.876Z,20.80
2022-08-08T23:24:23.008Z,20.90
2022-08-08T23:26:56.191Z,20.80
2022-08-08T23:29:27.156Z,20.70
2022-08-08T23:31:58.642Z,20.60
2022-08-08T23:34:29.231Z,20.60
2022-08-08T23:37:00.765Z,20.60
2022-08-08T23:39:42.108Z,20.50
2022-08-08T23:42:21.238Z,20.50
2022-08-08T23:44:50.191Z,20.40
2022-08-08T23:49:03.735Z,20.10
2022-08-08T23:50:30.254Z,20.10
2022-08-08T23:53:05.145Z,20.20
2022-08-08T23:55:42.048Z,20.20
2022-08-08T23:58:31.988Z,20.10
